createdAt,value
2018-11-02T00:00:57.445Z,80.17
2018-11-02T00:03:24.887Z,80.10
2018-11-02T00:05:52.350Z,79.80
2018-11-02T00:08:19.710Z,79.76
2018-11-02T00:10:47.262Z,79.54
2018-11-02T00:13:15.798Z,79.27
2018-11-02T00:15:43.149Z,79.45
2018-11-02T00:18:10.454Z,79.45
2018-11-02T00:20:37.709Z,79.34
2018-11-02T00:23:05.117Z,79.63
2018-11-02T00:25:32.512Z,79.62
2018-11-02T00:27:59.701Z,79.34
2018-11-02T00:30:27.418Z,79.80
2018-11-02T00:32:54.860Z,79.63
2018-11-02T00:35:22.134Z,79.60
2018-11-02T00:37:49.947Z,79.16
2018-11-02T00:40:17.351Z,79.64
2018-11-02T00:42:44.884Z,79.19
2018-11-02T00:45:12.426Z,79.21
2018-11-02T00:47:39.991Z,79.21
2018-11-02T00:50:08.831Z,79.67
2018-11-02T00:52:36.485Z,78.72
2018-11-02T00:55:04.095Z,79.29
2018-11-02T00:57:31.296Z,79.66
2018-11-02T00:59:58.560Z,79.14
2018-11-02T01:02:26.843Z,79.00
2018-11-02T01:04:54.338Z,78.95
2018-11-02T01:07:21.689Z,78.11
2018-11-02T01:09:48.988Z,78.73
2018-11-02T01:12:16.327Z,78.90
2018-11-02T01:14:43.754Z,77.98
2018-11-02T01:17:11.110Z,78.39
2018-11-02T01:19:38.477Z,78.01
2018-11-02T01:22:06.051Z,78.28
2018-11-02T01:24:33.429Z,77.89
2018-11-02T01:27:00.763Z,78.05
2018-11-02T01:29:28.720Z,77.61
2018-11-02T01:31:56.645Z,78.37
2018-11-02T01:34:24.045Z,78.56
2018-11-02T01:36:51.373Z,78.93
2018-11-02T01:39:18.760Z,78.16
2018-11-02T01:41:45.913Z,78.54
2018-11-02T01:44:13.390Z,78.68
2018-11-02T01:46:40.721Z,78.80
2018-11-02T01:49:08.314Z,78.70
2018-11-02T01:51:35.759Z,79.17
2018-11-02T01:54:03.157Z,78.89
2018-11-02T01:56:30.621Z,78.58
2018-11-02T01:58:58.009Z,79.38
2018-11-02T02:01:25.385Z,79.60
2018-11-02T02:03:53.303Z,79.22
2018-11-02T02:06:20.690Z,79.35
2018-11-02T02:08:48.052Z,79.12
2018-11-02T02:11:16.402Z,79.41
2018-11-02T02:13:43.641Z,79.40
2018-11-02T02:16:11.074Z,79.10
2018-11-02T02:18:38.573Z,79.40
2018-11-02T02:21:06.709Z,79.62
2018-11-02T02:23:33.958Z,79.30
2018-11-02T02:26:01.364Z,80.33
2018-11-02T02:28:28.689Z,80.39
2018-11-02T02:30:56.648Z,80.45
2018-11-02T02:33:24.030Z,80.33
2018-11-02T02:35:51.320Z,80.41
2018-11-02T02:38:19.615Z,80.10
2018-11-02T02:40:47.214Z,80.38
2018-11-02T02:43:14.522Z,80.24
2018-11-02T02:45:42.027Z,80.09
2018-11-02T02:48:09.532Z,80.15
2018-11-02T02:50:37.593Z,80.11
2018-11-02T02:53:04.957Z,79.98
2018-11-02T02:55:32.300Z,79.93
2018-11-02T02:57:59.618Z,79.98
2018-11-02T03:00:27.029Z,80.68
2018-11-02T03:02:54.385Z,80.65
2018-11-02T03:05:21.780Z,80.84
2018-11-02T03:07:49.182Z,80.87
2018-11-02T03:10:16.439Z,80.96
2018-11-02T03:12:43.899Z,81.30
2018-11-02T03:15:11.234Z,81.30
2018-11-02T03:17:38.477Z,81.75
2018-11-02T03:20:07.028Z,82.35
2018-11-02T03:22:34.451Z,82.51
2018-11-02T03:25:01.626Z,82.56
2018-11-02T03:27:29.304Z,82.37
2018-11-02T03:29:56.594Z,82.67
2018-11-02T03:32:23.952Z,82.27
2018-11-02T03:34:51.218Z,82.20
2018-11-02T03:37:18.970Z,82.48
2018-11-02T03:39:46.541Z,81.89
2018-11-02T03:42:14.196Z,82.31
2018-11-02T03:44:42.569Z,82.71
2018-11-02T03:47:10.226Z,82.43
2018-11-02T03:49:38.716Z,81.92
2018-11-02T03:52:06.132Z,82.03
2018-11-02T03:54:33.416Z,81.90
2018-11-02T03:57:00.747Z,82.07
2018-11-02T03:59:27.874Z,82.04
2018-11-02T04:01:55.424Z,82.50
2018-11-02T04:04:22.786Z,82.58
2018-11-02T04:06:50.053Z,82.46
2018-11-02T04:09:17.299Z,82.71
2018-11-02T04:11:44.699Z,82.65
2018-11-02T04:14:12.103Z,82.50
2018-11-02T04:16:39.408Z,82.21
2018-11-02T04:19:06.860Z,82.00
2018-11-02T04:21:44.064Z,81.90
2018-11-02T04:24:12.489Z,82.46
2018-11-02T04:26:43.934Z,82.59
2018-11-02T04:29:12.577Z,82.86
2018-11-02T04:31:41.318Z,82.91
2018-11-02T04:34:10.106Z,82.62
2018-11-02T04:36:37.390Z,82.77
2018-11-02T04:39:07.121Z,83.25
2018-11-02T04:41:35.039Z,83.18
2018-11-02T04:44:02.381Z,83.20
2018-11-02T04:46:29.699Z,83.28
2018-11-02T04:48:57.103Z,83.52
2018-11-02T04:51:24.934Z,83.61
2018-11-02T04:53:54.254Z,83.25
2018-11-02T04:56:22.081Z,83.71
2018-11-02T04:58:49.710Z,83.44
2018-11-02T05:01:17.088Z,83.86
2018-11-02T05:03:44.447Z,83.85
2018-11-02T05:06:11.793Z,83.57
2018-11-02T05:08:39.249Z,83.81
2018-11-02T05:11:06.798Z,83.57
2018-11-02T05:13:34.058Z,83.85
2018-11-02T05:16:01.409Z,83.62
2018-11-02T05:18:28.882Z,83.97
2018-11-02T05:20:56.236Z,84.24
2018-11-02T05:23:23.684Z,84.44
2018-11-02T05:25:50.932Z,84.83
2018-11-02T05:28:18.194Z,85.17
2018-11-02T05:30:45.576Z,84.85
2018-11-02T05:33:12.906Z,85.08
2018-11-02T05:35:40.187Z,85.63
2018-11-02T05:38:08.284Z,85.61
2018-11-02T05:40:36.292Z,85.75
2018-11-02T05:43:03.506Z,85.66
2018-11-02T05:45:30.775Z,85.80
2018-11-02T05:47:58.166Z,85.78
2018-11-02T05:50:25.410Z,85.34
2018-11-02T05:52:52.736Z,84.97
2018-11-02T05:55:20.019Z,84.79
2018-11-02T05:57:47.273Z,84.83
2018-11-02T06:00:15.182Z,84.61
2018-11-02T06:02:42.481Z,84.79
2018-11-02T06:05:09.805Z,84.77
2018-11-02T06:07:37.539Z,84.72
2018-11-02T06:10:04.906Z,84.31
2018-11-02T06:12:32.233Z,83.48
2018-11-02T06:14:59.560Z,83.51
2018-11-02T06:17:26.833Z,83.68
2018-11-02T06:19:54.063Z,83.83
2018-11-02T06:22:21.439Z,84.02
2018-11-02T06:24:48.805Z,83.59
2018-11-02T06:27:16.846Z,84.26
2018-11-02T06:29:44.916Z,84.30
2018-11-02T06:32:12.578Z,83.97
2018-11-02T06:34:39.851Z,83.68
2018-11-02T06:37:07.119Z,83.20
2018-11-02T06:39:34.797Z,83.14
2018-11-02T06:42:02.105Z,83.15
2018-11-02T06:44:29.692Z,82.77
2018-11-02T06:46:57.088Z,83.10
2018-11-02T06:49:24.584Z,82.51
2018-11-02T06:51:52.351Z,82.97
2018-11-02T06:54:19.702Z,82.70
2018-11-02T06:56:47.182Z,82.22
2018-11-02T06:59:15.014Z,82.21
2018-11-02T07:01:42.731Z,82.66
2018-11-02T07:04:09.932Z,82.32
2018-11-02T07:06:37.243Z,82.53
2018-11-02T07:09:07.439Z,81.90
2018-11-02T07:11:34.757Z,81.88
2018-11-02T07:14:02.195Z,82.11
2018-11-02T07:16:29.433Z,82.11
2018-11-02T07:18:56.861Z,82.31
2018-11-02T07:21:24.306Z,82.92
2018-11-02T07:23:53.227Z,82.41
2018-11-02T07:26:21.090Z,81.86
2018-11-02T07:28:49.418Z,82.10
2018-11-02T07:31:16.845Z,82.20
2018-11-02T07:33:44.435Z,81.81
2018-11-02T07:36:11.828Z,81.66
2018-11-02T07:38:39.223Z,81.82
2018-11-02T07:41:06.650Z,81.67
2018-11-02T07:43:34.466Z,81.56
2018-11-02T07:46:02.702Z,81.71
2018-11-02T07:48:30.366Z,81.37
2018-11-02T07:50:57.857Z,81.11
2018-11-02T07:53:25.134Z,81.36
2018-11-02T07:55:52.360Z,81.09
2018-11-02T07:58:20.290Z,81.01
2018-11-02T08:00:47.816Z,80.53
2018-11-02T08:03:15.220Z,80.57
2018-11-02T08:05:42.602Z,80.69
2018-11-02T08:08:09.955Z,80.69
2018-11-02T08:10:37.278Z,80.47
2018-11-02T08:13:04.673Z,80.34
2018-11-02T08:15:32.019Z,80.30
2018-11-02T08:17:59.431Z,79.70
2018-11-02T08:20:26.932Z,79.82
2018-11-02T08:22:54.195Z,79.53
2018-11-02T08:25:21.638Z,79.66
2018-11-02T08:27:49.415Z,79.52
2018-11-02T08:30:17.004Z,79.63
2018-11-02T08:32:44.285Z,79.14
2018-11-02T08:35:12.620Z,78.79
2018-11-02T08:37:40.330Z,78.72
2018-11-02T08:40:09.522Z,78.46
2018-11-02T08:42:37.690Z,78.89
2018-11-02T08:45:05.938Z,79.08
2018-11-02T08:47:33.492Z,78.63
2018-11-02T08:50:01.262Z,78.67
2018-11-02T08:52:28.874Z,78.35
2018-11-02T08:54:56.308Z,78.17
2018-11-02T08:57:23.782Z,78.05
2018-11-02T08:59:52.020Z,77.50
2018-11-02T09:02:19.370Z,77.41
2018-11-02T09:04:46.805Z,76.76
2018-11-02T09:07:14.483Z,76.41
2018-11-02T09:09:41.873Z,76.27
2018-11-02T09:12:09.216Z,75.51
2018-11-02T09:14:36.651Z,75.46
2018-11-02T09:17:05.649Z,75.42
2018-11-02T09:19:34.193Z,74.84
2018-11-02T09:22:01.647Z,74.97
2018-11-02T09:24:29.222Z,75.16
2018-11-02T09:26:56.525Z,74.70
2018-11-02T09:29:23.988Z,74.36
2018-11-02T09:31:52.791Z,73.93
2018-11-02T09:34:20.454Z,74.16
2018-11-02T09:36:47.693Z,73.39
2018-11-02T09:39:15.095Z,72.85
2018-11-02T09:41:42.443Z,72.51
2018-11-02T09:44:10.007Z,71.66
2018-11-02T09:46:37.663Z,71.21
2018-11-02T09:49:05.224Z,70.53
2018-11-02T09:51:32.942Z,70.15
2018-11-02T09:54:00.298Z,69.78
2018-11-02T09:56:27.611Z,68.83
2018-11-02T09:58:54.915Z,68.34
2018-11-02T10:01:22.635Z,68.82
2018-11-02T10:03:50.286Z,67.51
2018-11-02T10:06:17.721Z,67.87
2018-11-02T10:08:45.920Z,67.19
2018-11-02T10:11:13.788Z,68.20
2018-11-02T10:13:41.078Z,67.55
2018-11-02T10:16:08.842Z,67.75
2018-11-02T10:18:36.372Z,67.32
2018-11-02T10:21:03.913Z,67.51
2018-11-02T10:23:31.457Z,66.82
2018-11-02T10:25:59.019Z,67.21
2018-11-02T10:28:27.194Z,67.07
2018-11-02T10:30:54.859Z,66.25
2018-11-02T10:33:22.444Z,66.30
2018-11-02T10:35:50.646Z,65.39
2018-11-02T10:38:18.236Z,65.90
2018-11-02T10:40:51.138Z,65.84
2018-11-02T10:43:19.404Z,64.91
2018-11-02T10:45:47.895Z,65.36
2018-11-02T10:48:15.357Z,64.48
2018-11-02T10:50:42.708Z,64.83
2018-11-02T10:53:10.037Z,65.04
2018-11-02T10:55:37.385Z,64.80
2018-11-02T10:58:05.109Z,65.33
2018-11-02T11:00:38.240Z,66.03
2018-11-02T11:03:05.727Z,66.42
2018-11-02T11:05:34.324Z,65.93
2018-11-02T11:08:01.558Z,66.54
2018-11-02T11:10:29.041Z,66.29
2018-11-02T11:12:56.706Z,66.59
2018-11-02T11:15:23.895Z,66.68
2018-11-02T11:17:52.203Z,66.69
2018-11-02T11:20:19.971Z,66.65
2018-11-02T11:22:47.426Z,67.18
2018-11-02T11:25:15.285Z,67.30
2018-11-02T11:27:42.747Z,66.82
2018-11-02T11:30:16.256Z,66.58
2018-11-02T11:32:43.720Z,66.00
2018-11-02T11:35:13.034Z,65.53
2018-11-02T11:37:40.872Z,65.02
2018-11-02T11:40:10.473Z,64.27
2018-11-02T11:42:38.154Z,64.12
2018-11-02T11:45:07.025Z,63.83
2018-11-02T11:47:34.450Z,63.02
2018-11-02T11:50:02.055Z,63.89
2018-11-02T11:52:29.354Z,63.61
2018-11-02T11:54:56.728Z,64.83
2018-11-02T11:57:24.030Z,64.16
2018-11-02T11:59:51.317Z,64.11
2018-11-02T12:02:18.967Z,63.84
2018-11-02T12:04:46.462Z,64.08
2018-11-02T12:07:14.667Z,63.82
2018-11-02T12:09:42.134Z,64.45
2018-11-02T12:12:09.457Z,64.18
2018-11-02T12:14:36.732Z,64.18
2018-11-02T12:17:04.207Z,63.01
2018-11-02T12:19:31.594Z,63.16
2018-11-02T12:21:59.236Z,63.20
2018-11-02T12:24:27.002Z,62.28
2018-11-02T12:26:54.699Z,62.26
2018-11-02T12:29:22.181Z,62.03
2018-11-02T12:31:49.766Z,62.65
2018-11-02T12:34:17.081Z,62.58
2018-11-02T12:36:44.652Z,64.05
2018-11-02T12:39:12.187Z,63.44
2018-11-02T12:41:40.392Z,63.83
2018-11-02T12:44:08.689Z,63.75
2018-11-02T12:46:36.334Z,63.88
2018-11-02T12:54:04.122Z,64.02
2018-11-02T12:56:31.439Z,76.61
2018-11-02T12:58:58.838Z,71.12
2018-11-02T13:01:26.137Z,70.67
2018-11-02T13:03:54.504Z,67.83
2018-11-02T13:06:21.925Z,69.07
2018-11-02T13:08:49.388Z,67.18
2018-11-02T13:11:16.857Z,62.98
2018-11-02T13:13:44.160Z,64.46
2018-11-02T13:16:11.569Z,63.70
2018-11-02T13:18:38.915Z,64.88
2018-11-02T13:21:06.209Z,64.90
2018-11-02T13:23:33.579Z,64.32
2018-11-02T13:26:01.459Z,61.89
2018-11-02T13:28:28.586Z,64.96
2018-11-02T13:30:56.174Z,65.45
2018-11-02T13:33:23.555Z,64.60
2018-11-02T13:35:51.907Z,64.23
2018-11-02T13:38:19.592Z,63.74
2018-11-02T13:40:46.853Z,64.68
2018-11-02T13:43:14.536Z,61.49
2018-11-02T13:45:45.273Z,61.91
2018-11-02T13:48:13.500Z,62.18
2018-11-02T13:50:41.063Z,62.98
2018-11-02T13:53:08.557Z,63.23
2018-11-02T13:55:36.334Z,64.16
2018-11-02T13:58:05.381Z,64.58
2018-11-02T14:00:33.109Z,63.56
2018-11-02T14:03:01.025Z,63.89
2018-11-02T14:05:28.699Z,63.90
2018-11-02T14:07:57.282Z,63.90
2018-11-02T14:10:24.439Z,64.26
2018-11-02T14:12:51.972Z,64.19
2018-11-02T14:15:19.473Z,64.33
2018-11-02T14:17:46.873Z,63.77
2018-11-02T14:20:14.512Z,64.02
2018-11-02T14:22:41.853Z,63.72
2018-11-02T14:25:11.631Z,63.95
2018-11-02T14:27:39.748Z,63.56
2018-11-02T14:30:09.110Z,64.53
2018-11-02T14:32:36.636Z,64.59
2018-11-02T14:35:04.164Z,64.94
2018-11-02T14:37:31.657Z,64.83
2018-11-02T14:39:59.223Z,64.58
2018-11-02T14:42:26.575Z,64.22
2018-11-02T14:44:54.088Z,64.68
2018-11-02T14:47:21.816Z,64.36
2018-11-02T14:49:49.937Z,64.67
2018-11-02T14:52:17.341Z,64.77
2018-11-02T14:54:44.647Z,64.08
2018-11-02T14:58:29.247Z,64.28
2018-11-02T15:00:57.717Z,64.22
2018-11-02T15:03:26.305Z,64.38
2018-11-02T15:05:54.075Z,64.79
2018-11-02T15:08:23.523Z,64.54
2018-11-02T15:11:09.409Z,64.79
2018-11-02T15:13:36.634Z,64.62
2018-11-02T15:16:04.816Z,64.66
2018-11-02T15:18:32.249Z,64.88
2018-11-02T15:21:00.011Z,65.06
2018-11-02T15:23:27.567Z,64.66
2018-11-02T15:25:54.924Z,65.77
2018-11-02T15:28:22.242Z,65.50
2018-11-02T15:30:49.678Z,65.71
2018-11-02T15:33:17.978Z,64.92
2018-11-02T15:35:45.231Z,64.62
2018-11-02T15:38:12.635Z,64.33
2018-11-02T15:40:41.576Z,65.00
2018-11-02T15:43:09.170Z,63.92
2018-11-02T15:45:36.833Z,64.75
2018-11-02T15:48:04.422Z,64.11
2018-11-02T15:50:32.000Z,64.86
2018-11-02T15:52:59.899Z,64.34
2018-11-02T15:55:27.432Z,64.81
2018-11-02T15:57:54.937Z,64.02
2018-11-02T16:00:22.520Z,64.19
2018-11-02T16:02:51.137Z,64.57
2018-11-02T16:05:18.557Z,64.38
2018-11-02T16:07:45.942Z,64.44
2018-11-02T16:10:13.590Z,64.60
2018-11-02T16:12:41.719Z,64.49
2018-11-02T16:15:09.703Z,64.41
2018-11-02T16:17:37.450Z,64.79
2018-11-02T16:20:06.664Z,64.35
2018-11-02T16:22:34.003Z,65.08
2018-11-02T16:25:01.372Z,65.36
2018-11-02T16:27:29.046Z,65.74
2018-11-02T16:29:56.777Z,65.37
2018-11-02T16:32:29.982Z,65.34
2018-11-02T16:34:58.479Z,65.53
2018-11-02T16:37:26.486Z,66.36
2018-11-02T16:39:53.770Z,66.09
2018-11-02T16:42:21.039Z,67.21
2018-11-02T16:44:48.554Z,67.23
2018-11-02T16:47:15.975Z,68.39
2018-11-02T16:49:44.022Z,68.57
2018-11-02T16:52:11.326Z,69.74
2018-11-02T16:54:38.718Z,69.63
2018-11-02T16:57:06.298Z,69.36
2018-11-02T16:59:33.764Z,69.13
2018-11-02T17:02:03.045Z,69.22
2018-11-02T17:04:30.836Z,68.97
2018-11-02T17:06:58.271Z,68.96
2018-11-02T17:09:25.741Z,68.61
2018-11-02T17:11:53.254Z,68.81
2018-11-02T17:14:20.759Z,69.09
2018-11-02T17:16:48.736Z,69.25
2018-11-02T17:19:16.631Z,69.46
2018-11-02T17:21:44.274Z,69.44
2018-11-02T17:24:11.501Z,69.67
2018-11-02T17:26:38.918Z,69.50
2018-11-02T17:29:07.433Z,69.27
2018-11-02T17:31:35.049Z,70.23
2018-11-02T17:36:41.471Z,70.05
2018-11-02T17:39:11.554Z,69.74
2018-11-02T17:41:42.263Z,69.43
2018-11-02T17:44:09.952Z,68.63
2018-11-02T17:46:37.550Z,67.97
2018-11-02T17:49:04.903Z,68.61
2018-11-02T17:51:32.278Z,68.78
2018-11-02T17:53:59.621Z,69.00
2018-11-02T17:56:26.931Z,69.10
2018-11-02T17:58:54.321Z,69.41
2018-11-02T18:01:22.761Z,69.71
2018-11-02T18:03:50.107Z,69.96
2018-11-02T18:06:17.541Z,69.64
2018-11-02T18:08:45.431Z,69.48
2018-11-02T18:11:13.036Z,69.83
2018-11-02T18:13:40.391Z,70.30
2018-11-02T18:16:08.837Z,69.63
2018-11-02T18:18:36.309Z,69.20
2018-11-02T18:21:03.469Z,69.40
2018-11-02T18:23:30.786Z,69.75
2018-11-02T18:25:58.465Z,70.32
2018-11-02T18:28:25.890Z,70.46
2018-11-02T18:30:53.443Z,70.39
2018-11-02T18:33:20.782Z,70.06
2018-11-02T18:35:48.196Z,69.83
2018-11-02T18:38:16.722Z,69.88
2018-11-02T18:40:43.969Z,70.17
2018-11-02T18:43:11.221Z,69.94
2018-11-02T18:45:38.627Z,69.91
2018-11-02T18:48:06.079Z,70.06
2018-11-02T18:50:33.430Z,69.72
2018-11-02T18:53:00.909Z,70.14
2018-11-02T18:55:28.242Z,70.71
2018-11-02T18:57:55.792Z,69.85
2018-11-02T19:00:22.997Z,70.31
2018-11-02T19:02:50.364Z,70.38
2018-11-02T19:05:18.536Z,70.66
2018-11-02T19:07:45.987Z,70.65
2018-11-02T19:10:13.631Z,71.11
2018-11-02T19:12:41.502Z,71.38
2018-11-02T19:15:12.762Z,71.29
2018-11-02T19:17:40.771Z,71.90
2018-11-02T19:20:09.065Z,71.43
2018-11-02T19:22:36.468Z,71.22
2018-11-02T19:25:04.531Z,71.70
2018-11-02T19:27:32.235Z,71.11
2018-11-02T19:29:59.615Z,71.07
2018-11-02T19:32:27.217Z,71.08
2018-11-02T19:34:54.829Z,70.96
2018-11-02T19:37:22.035Z,71.10
2018-11-02T19:39:49.400Z,70.53
2018-11-02T19:42:16.846Z,70.19
2018-11-02T19:44:44.489Z,70.20
2018-11-02T19:47:12.085Z,70.64
2018-11-02T19:49:40.506Z,70.19
2018-11-02T19:52:07.889Z,69.98
2018-11-02T19:54:35.685Z,70.44
2018-11-02T19:57:03.267Z,69.87
2018-11-02T19:59:31.099Z,70.24
2018-11-02T20:01:58.543Z,69.92
2018-11-02T20:04:27.440Z,70.47
2018-11-02T20:06:55.605Z,70.80
2018-11-02T20:09:23.042Z,71.17
2018-11-02T20:12:03.192Z,70.25
2018-11-02T20:14:31.089Z,70.86
2018-11-02T20:16:59.267Z,70.22
2018-11-02T20:19:28.356Z,70.67
2018-11-02T20:21:56.125Z,70.14
2018-11-02T20:24:23.476Z,70.27
2018-11-02T20:26:50.774Z,71.21
2018-11-02T20:29:18.102Z,72.03
2018-11-02T20:31:45.646Z,72.86
2018-11-02T20:34:13.832Z,73.45
2018-11-02T20:36:41.183Z,74.01
2018-11-02T20:39:10.230Z,74.03
2018-11-02T20:41:37.673Z,74.05
2018-11-02T20:44:05.379Z,74.15
2018-11-02T20:46:33.250Z,74.15
2018-11-02T20:49:00.687Z,74.01
2018-11-02T20:51:28.069Z,74.11
2018-11-02T20:53:55.782Z,74.08
2018-11-02T20:56:23.198Z,73.42
2018-11-02T20:58:50.845Z,73.87
2018-11-02T21:01:18.404Z,73.94
2018-11-02T21:03:45.750Z,74.16
2018-11-02T21:06:13.239Z,74.03
2018-11-02T21:08:40.622Z,73.81
2018-11-02T21:11:10.594Z,73.80
2018-11-02T21:13:38.352Z,73.63
2018-11-02T21:16:06.531Z,74.20
2018-11-02T21:18:34.070Z,74.57
2018-11-02T21:21:01.419Z,73.94
2018-11-02T21:23:29.655Z,74.19
2018-11-02T21:25:58.703Z,74.25
2018-11-02T21:28:26.077Z,74.88
2018-11-02T21:30:54.564Z,74.51
2018-11-02T21:33:22.702Z,74.48
2018-11-02T21:35:50.374Z,74.78
2018-11-02T21:38:17.888Z,74.50
2018-11-02T21:40:45.172Z,74.01
2018-11-02T21:43:14.177Z,73.66
2018-11-02T21:45:41.537Z,72.91
2018-11-02T21:48:09.593Z,73.68
2018-11-02T21:50:37.562Z,73.45
2018-11-02T21:53:05.032Z,73.80
2018-11-02T21:55:32.374Z,74.19
2018-11-02T21:57:59.932Z,74.44
2018-11-02T22:00:27.879Z,75.12
2018-11-02T22:02:55.226Z,74.55
2018-11-02T22:05:22.688Z,75.03
2018-11-02T22:07:50.434Z,74.92
2018-11-02T22:10:18.053Z,74.59
2018-11-02T22:12:45.773Z,74.88
2018-11-02T22:15:13.144Z,74.83
2018-11-02T22:17:41.045Z,74.91
2018-11-02T22:20:10.242Z,75.36
2018-11-02T22:22:38.935Z,74.85
2018-11-02T22:25:07.612Z,75.16
2018-11-02T22:27:35.037Z,75.26
2018-11-02T22:30:02.534Z,75.72
2018-11-02T22:32:30.251Z,76.04
2018-11-02T22:34:57.498Z,75.77
2018-11-02T22:37:25.057Z,76.34
2018-11-02T22:39:52.497Z,76.08
2018-11-02T22:42:19.891Z,75.98
2018-11-02T22:44:47.267Z,76.36
2018-11-02T22:47:15.010Z,76.71
2018-11-02T22:49:42.625Z,76.80
2018-11-02T22:52:10.178Z,77.09
2018-11-02T22:54:37.607Z,76.85
2018-11-02T22:57:05.075Z,76.95
2018-11-02T22:59:32.398Z,76.73
2018-11-02T23:01:59.758Z,76.90
2018-11-02T23:04:27.003Z,76.88
2018-11-02T23:06:54.564Z,76.50
2018-11-02T23:09:21.891Z,76.56
2018-11-02T23:11:49.305Z,77.16
2018-11-02T23:14:16.610Z,77.16
2018-11-02T23:16:43.882Z,77.24
2018-11-02T23:19:11.148Z,76.86
2018-11-02T23:21:38.403Z,76.86
2018-11-02T23:24:05.957Z,77.18
2018-11-02T23:26:36.019Z,76.92
2018-11-02T23:29:03.656Z,77.20
2018-11-02T23:31:30.874Z,77.97
2018-11-02T23:33:58.170Z,77.47
2018-11-02T23:36:25.481Z,77.52
2018-11-02T23:38:52.729Z,77.69
2018-11-02T23:41:20.131Z,77.46
2018-11-02T23:43:47.575Z,78.09
2018-11-02T23:46:14.925Z,77.97
2018-11-02T23:48:42.477Z,78.59
2018-11-02T23:51:09.820Z,78.54
2018-11-02T23:53:37.429Z,77.77
2018-11-02T23:56:04.878Z,77.60
2018-11-02T23:58:32.144Z,78.04
